createdAt,value
2022-11-12T00:06:55.298Z,4.43
2022-11-12T00:36:58.148Z,4.23
2022-11-12T01:07:01.748Z,4.08
2022-11-12T01:37:04.601Z,3.54
2022-11-12T02:07:08.552Z,2.90
2022-11-12T02:37:11.822Z,2.56
2022-11-12T03:07:16.558Z,2.17
2022-11-12T03:37:19.518Z,1.85
2022-11-12T04:07:23.340Z,1.73
2022-11-12T04:37:26.300Z,1.67
2022-11-12T05:07:30.319Z,2.02
2022-11-12T05:37:33.063Z,2.94
2022-11-12T06:07:37.543Z,3.85
2022-11-12T06:37:40.443Z,4.42
2022-11-12T07:07:43.992Z,5.05
2022-11-12T07:37:46.869Z,5.79
2022-11-12T08:07:50.827Z,6.37
2022-11-12T08:37:53.653Z,6.77
2022-11-12T09:07:57.641Z,7.19
2022-11-12T09:38:00.418Z,7.80
2022-11-12T10:08:04.269Z,8.42
2022-11-12T10:38:07.500Z,8.88
2022-11-12T11:08:11.114Z,8.94
2022-11-12T11:38:14.715Z,8.98
2022-11-12T12:08:18.471Z,9.12
2022-11-12T12:38:21.408Z,9.18
2022-11-12T13:08:25.211Z,9.37
2022-11-12T13:38:28.892Z,9.40
2022-11-12T14:08:32.803Z,9.36
2022-11-12T14:38:35.645Z,9.49
2022-11-12T15:08:39.490Z,9.48
2022-11-12T15:38:42.340Z,9.42
2022-11-12T16:08:45.989Z,9.40
2022-11-12T16:38:49.316Z,9.35
2022-11-12T17:08:52.713Z,9.28
2022-11-12T17:38:55.909Z,9.40
2022-11-12T18:09:00.011Z,9.35
2022-11-12T18:39:03.225Z,9.37
2022-11-12T19:09:07.152Z,9.39
2022-11-12T19:39:10.492Z,9.57
2022-11-12T20:09:13.701Z,9.47
2022-11-12T20:39:16.521Z,9.42
2022-11-12T21:09:20.434Z,9.54
2022-11-12T21:39:23.303Z,9.39
2022-11-12T22:09:26.845Z,9.34
2022-11-12T22:39:29.730Z,9.33
2022-11-12T23:09:33.148Z,9.36
2022-11-12T23:39:35.999Z,9.26
